sensor_id;sensor_type;location;lat;lon;timestamp;pressure;altitude;pressure_sealevel;temperature;humidity
32638;BME280;19045;52.268;10.506;2023-02-19T00:00:58;100506.09;;;8.81;100.00
32638;BME280;19045;52.268;10.506;2023-02-19T00:03:25;100500.47;;;8.83;100.00
32638;BME280;19045;52.268;10.506;2023-02-19T00:05:52;100490.47;;;8.78;100.00
32638;BME280;19045;52.268;10.506;2023-02-19T00:08:18;100486.53;;;8.81;100.00
32638;BME280;19045;52.268;10.506;2023-02-19T00:10:45;100451.06;;;8.74;100.00
32638;BME280;19045;52.268;10.506;2023-02-19T00:13:13;100438.38;;;8.69;100.00
32638;BME280;19045;52.268;10.506;2023-02-19T00:15:40;100460.13;;;8.73;100.00
32638;BME280;19045;52.268;10.506;2023-02-19T00:18:06;100485.88;;;8.74;100.00
32638;BME280;19045;52.268;10.506;2023-02-19T00:20:33;100484.97;;;8.68;100.00
32638;BME280;19045;52.268;10.506;2023-02-19T00:22:59;100472.38;;;8.69;100.00
32638;BME280;19045;52.268;10.506;2023-02-19T00:25:26;100450.09;;;8.63;100.00
32638;BME280;19045;52.268;10.506;2023-02-19T00:27:53;100475.00;;;8.64;100.00
32638;BME280;19045;52.268;10.506;2023-02-19T00:30:21;100466.06;;;8.58;100.00
32638;BME280;19045;52.268;10.506;2023-02-19T00:32:49;100462.00;;;8.56;100.00
32638;BME280;19045;52.268;10.506;2023-02-19T00:35:15;100454.13;;;8.49;100.00
32638;BME280;19045;52.268;10.506;2023-02-19T00:37:42;100448.53;;;8.51;100.00
32638;BME280;19045;52.268;10.506;2023-02-19T00:40:09;100452.97;;;8.45;100.00
32638;BME280;19045;52.268;10.506;2023-02-19T00:42:36;100447.31;;;8.42;100.00
32638;BME280;19045;52.268;10.506;2023-02-19T00:45:03;100438.47;;;8.41;100.00
32638;BME280;19045;52.268;10.506;2023-02-19T00:47:31;100433.28;;;8.35;100.00
32638;BME280;19045;52.268;10.506;2023-02-19T00:49:57;100443.72;;;8.36;100.00
32638;BME280;19045;52.268;10.506;2023-02-19T00:52:24;100433.63;;;8.38;100.00
32638;BME280;19045;52.268;10.506;2023-02-19T00:54:50;100431.44;;;8.35;100.00
32638;BME280;19045;52.268;10.506;2023-02-19T00:57:18;100425.59;;;8.38;100.00
32638;BME280;19045;52.268;10.506;2023-02-19T00:59:45;100431.16;;;8.37;100.00
32638;BME280;19045;52.268;10.506;2023-02-19T01:02:11;100424.34;;;8.46;100.00
32638;BME280;19045;52.268;10.506;2023-02-19T01:04:39;100418.09;;;8.40;100.00
32638;BME280;19045;52.268;10.506;2023-02-19T01:07:06;100412.09;;;8.50;100.00
32638;BME280;19045;52.268;10.506;2023-02-19T01:09:33;100413.56;;;8.41;100.00
32638;BME280;19045;52.268;10.506;2023-02-19T01:11:59;100415.34;;;8.52;100.00
32638;BME280;19045;52.268;10.506;2023-02-19T01:14:26;100410.47;;;8.49;100.00
32638;BME280;19045;52.268;10.506;2023-02-19T01:16:53;100409.25;;;8.56;100.00
32638;BME280;19045;52.268;10.506;2023-02-19T01:19:19;100394.41;;;8.49;100.00
32638;BME280;19045;52.268;10.506;2023-02-19T01:21:47;100393.47;;;8.55;100.00
32638;BME280;19045;52.268;10.506;2023-02-19T01:24:14;100378.94;;;8.51;100.00
32638;BME280;19045;52.268;10.506;2023-02-19T01:26:41;100371.47;;;8.53;100.00
32638;BME280;19045;52.268;10.506;2023-02-19T01:29:08;100374.63;;;8.50;100.00
32638;BME280;19045;52.268;10.506;2023-02-19T01:31:35;100362.72;;;8.41;100.00
32638;BME280;19045;52.268;10.506;2023-02-19T01:34:02;100359.56;;;8.44;100.00
32638;BME280;19045;52.268;10.506;2023-02-19T01:36:32;100340.25;;;8.42;100.00
32638;BME280;19045;52.268;10.506;2023-02-19T01:39:00;100344.22;;;8.39;100.00
32638;BME280;19045;52.268;10.506;2023-02-19T01:41:29;100346.06;;;8.39;100.00
32638;BME280;19045;52.268;10.506;2023-02-19T01:43:59;100353.06;;;8.40;100.00
32638;BME280;19045;52.268;10.506;2023-02-19T01:46:27;100354.69;;;8.41;100.00
32638;BME280;19045;52.268;10.506;2023-02-19T01:48:56;100356.06;;;8.43;100.00
32638;BME280;19045;52.268;10.506;2023-02-19T01:51:24;100360.03;;;8.41;100.00
32638;BME280;19045;52.268;10.506;2023-02-19T01:53:55;100363.13;;;8.32;100.00
32638;BME280;19045;52.268;10.506;2023-02-19T01:56:26;100367.34;;;8.28;100.00
32638;BME280;19045;52.268;10.506;2023-02-19T01:58:54;100383.50;;;8.22;100.00
32638;BME280;19045;52.268;10.506;2023-02-19T02:01:22;100385.28;;;8.16;100.00
32638;BME280;19045;52.268;10.506;2023-02-19T02:03:48;100370.78;;;8.12;100.00
32638;BME280;19045;52.268;10.506;2023-02-19T02:06:19;100369.09;;;8.23;100.00
32638;BME280;19045;52.268;10.506;2023-02-19T02:08:47;100360.34;;;8.27;100.00
32638;BME280;19045;52.268;10.506;2023-02-19T02:11:34;100339.78;;;8.28;100.00
32638;BME280;19045;52.268;10.506;2023-02-19T02:14:02;100360.72;;;8.19;100.00
32638;BME280;19045;52.268;10.506;2023-02-19T02:16:40;100360.19;;;8.17;100.00
32638;BME280;19045;52.268;10.506;2023-02-19T02:19:21;100362.59;;;8.19;100.00
32638;BME280;19045;52.268;10.506;2023-02-19T02:22:00;100349.88;;;8.26;100.00
32638;BME280;19045;52.268;10.506;2023-02-19T02:27:42;100345.91;;;8.12;100.00
32638;BME280;19045;52.268;10.506;2023-02-19T02:30:26;100340.84;;;8.15;100.00
32638;BME280;19045;52.268;10.506;2023-02-19T02:33:00;100330.25;;;8.20;100.00
32638;BME280;19045;52.268;10.506;2023-02-19T02:35:33;100336.31;;;8.16;100.00
32638;BME280;19045;52.268;10.506;2023-02-19T02:38:03;100330.91;;;8.11;100.00
32638;BME280;19045;52.268;10.506;2023-02-19T02:40:33;100327.25;;;8.17;100.00
32638;BME280;19045;52.268;10.506;2023-02-19T02:43:00;100330.09;;;8.10;100.00
32638;BME280;19045;52.268;10.506;2023-02-19T02:45:30;100323.53;;;8.01;100.00
32638;BME280;19045;52.268;10.506;2023-02-19T02:48:01;100335.28;;;8.00;100.00
32638;BME280;19045;52.268;10.506;2023-02-19T02:50:34;100338.75;;;8.01;100.00
32638;BME280;19045;52.268;10.506;2023-02-19T02:53:06;100339.09;;;8.04;100.00
32638;BME280;19045;52.268;10.506;2023-02-19T02:55:51;100333.97;;;8.03;100.00
32638;BME280;19045;52.268;10.506;2023-02-19T02:58:21;100332.44;;;8.07;100.00
32638;BME280;19045;52.268;10.506;2023-02-19T03:00:53;100334.06;;;8.08;100.00
32638;BME280;19045;52.268;10.506;2023-02-19T03:03:41;100338.94;;;8.11;100.00
32638;BME280;19045;52.268;10.506;2023-02-19T03:06:10;100331.28;;;8.19;100.00
32638;BME280;19045;52.268;10.506;2023-02-19T03:08:42;100338.13;;;8.10;100.00
32638;BME280;19045;52.268;10.506;2023-02-19T03:11:11;100330.16;;;8.15;100.00
32638;BME280;19045;52.268;10.506;2023-02-19T03:14:00;100333.75;;;8.04;100.00
32638;BME280;19045;52.268;10.506;2023-02-19T03:16:50;100340.94;;;8.04;100.00
32638;BME280;19045;52.268;10.506;2023-02-19T03:19:41;100328.53;;;7.98;100.00
32638;BME280;19045;52.268;10.506;2023-02-19T03:22:13;100334.78;;;8.03;100.00
32638;BME280;19045;52.268;10.506;2023-02-19T03:24:45;100336.63;;;8.03;100.00
32638;BME280;19045;52.268;10.506;2023-02-19T03:27:35;100341.34;;;8.12;100.00
32638;BME280;19045;52.268;10.506;2023-02-19T03:30:09;100339.25;;;8.14;100.00
32638;BME280;19045;52.268;10.506;2023-02-19T03:32:41;100326.59;;;8.10;100.00
32638;BME280;19045;52.268;10.506;2023-02-19T03:35:13;100328.56;;;8.14;100.00
32638;BME280;19045;52.268;10.506;2023-02-19T03:37:45;100323.69;;;8.11;100.00
32638;BME280;19045;52.268;10.506;2023-02-19T03:40:13;100335.94;;;8.07;100.00
32638;BME280;19045;52.268;10.506;2023-02-19T03:42:42;100331.47;;;8.13;100.00
32638;BME280;19045;52.268;10.506;2023-02-19T03:45:25;100344.34;;;8.16;100.00
32638;BME280;19045;52.268;10.506;2023-02-19T03:48:04;100365.09;;;8.25;100.00
32638;BME280;19045;52.268;10.506;2023-02-19T03:50:43;100353.97;;;7.84;100.00
32638;BME280;19045;52.268;10.506;2023-02-19T03:53:21;100384.59;;;7.48;100.00
32638;BME280;19045;52.268;10.506;2023-02-19T03:55:56;100398.56;;;7.26;100.00
32638;BME280;19045;52.268;10.506;2023-02-19T03:58:30;100401.97;;;7.10;100.00
32638;BME280;19045;52.268;10.506;2023-02-19T04:01:03;100415.47;;;7.04;100.00
32638;BME280;19045;52.268;10.506;2023-02-19T04:03:36;100405.97;;;6.85;100.00
32638;BME280;19045;52.268;10.506;2023-02-19T04:06:10;100421.75;;;6.74;100.00
32638;BME280;19045;52.268;10.506;2023-02-19T04:08:41;100416.75;;;6.78;100.00
32638;BME280;19045;52.268;10.506;2023-02-19T04:11:10;100422.44;;;6.70;100.00
32638;BME280;19045;52.268;10.506;2023-02-19T04:13:40;100441.78;;;6.54;100.00
32638;BME280;19045;52.268;10.506;2023-02-19T04:16:11;100448.88;;;6.48;100.00
32638;BME280;19045;52.268;10.506;2023-02-19T04:18:44;100442.59;;;6.43;100.00
32638;BME280;19045;52.268;10.506;2023-02-19T04:21:13;100441.91;;;6.36;100.00
32638;BME280;19045;52.268;10.506;2023-02-19T04:23:43;100434.56;;;6.31;100.00
32638;BME280;19045;52.268;10.506;2023-02-19T04:26:12;100434.66;;;6.13;100.00
32638;BME280;19045;52.268;10.506;2023-02-19T04:28:40;100433.41;;;5.97;100.00
32638;BME280;19045;52.268;10.506;2023-02-19T04:31:08;100447.22;;;5.94;100.00
32638;BME280;19045;52.268;10.506;2023-02-19T04:33:34;100467.25;;;5.97;100.00
32638;BME280;19045;52.268;10.506;2023-02-19T04:36:03;100467.81;;;5.87;100.00
32638;BME280;19045;52.268;10.506;2023-02-19T04:38:29;100473.81;;;5.64;100.00
32638;BME280;19045;52.268;10.506;2023-02-19T04:40:56;100479.66;;;5.55;100.00
32638;BME280;19045;52.268;10.506;2023-02-19T04:43:23;100483.34;;;5.54;100.00
32638;BME280;19045;52.268;10.506;2023-02-19T04:45:49;100479.09;;;5.53;100.00
32638;BME280;19045;52.268;10.506;2023-02-19T04:48:16;100491.72;;;5.39;100.00
32638;BME280;19045;52.268;10.506;2023-02-19T04:50:43;100494.09;;;5.47;100.00
32638;BME280;19045;52.268;10.506;2023-02-19T04:53:11;100493.50;;;5.45;100.00
32638;BME280;19045;52.268;10.506;2023-02-19T04:55:38;100510.97;;;5.41;100.00
32638;BME280;19045;52.268;10.506;2023-02-19T04:58:04;100514.06;;;5.38;100.00
32638;BME280;19045;52.268;10.506;2023-02-19T05:00:31;100527.63;;;5.37;100.00
32638;BME280;19045;52.268;10.506;2023-02-19T05:02:59;100523.91;;;5.38;100.00
32638;BME280;19045;52.268;10.506;2023-02-19T05:05:26;100538.13;;;5.50;100.00
32638;BME280;19045;52.268;10.506;2023-02-19T05:07:52;100530.34;;;5.48;100.00
32638;BME280;19045;52.268;10.506;2023-02-19T05:10:20;100547.22;;;5.60;100.00
32638;BME280;19045;52.268;10.506;2023-02-19T05:12:47;100541.53;;;5.57;100.00
32638;BME280;19045;52.268;10.506;2023-02-19T05:15:14;100546.56;;;5.47;100.00
32638;BME280;19045;52.268;10.506;2023-02-19T05:17:40;100552.25;;;5.50;100.00
32638;BME280;19045;52.268;10.506;2023-02-19T05:20:08;100555.66;;;5.39;100.00
32638;BME280;19045;52.268;10.506;2023-02-19T05:22:34;100547.22;;;5.42;100.00
32638;BME280;19045;52.268;10.506;2023-02-19T05:25:01;100556.75;;;5.32;100.00
32638;BME280;19045;52.268;10.506;2023-02-19T05:27:30;100556.38;;;5.28;100.00
32638;BME280;19045;52.268;10.506;2023-02-19T05:29:57;100562.38;;;5.24;100.00
32638;BME280;19045;52.268;10.506;2023-02-19T05:32:24;100577.63;;;5.35;100.00
32638;BME280;19045;52.268;10.506;2023-02-19T05:34:50;100592.19;;;5.32;100.00
32638;BME280;19045;52.268;10.506;2023-02-19T05:37:17;100609.13;;;5.38;100.00
32638;BME280;19045;52.268;10.506;2023-02-19T05:39:43;100614.16;;;5.28;100.00
32638;BME280;19045;52.268;10.506;2023-02-19T05:42:12;100627.47;;;5.28;100.00
32638;BME280;19045;52.268;10.506;2023-02-19T05:44:40;100629.31;;;5.27;100.00
32638;BME280;19045;52.268;10.506;2023-02-19T05:47:07;100627.56;;;5.14;100.00
32638;BME280;19045;52.268;10.506;2023-02-19T05:49:33;100637.91;;;4.98;100.00
32638;BME280;19045;52.268;10.506;2023-02-19T05:52:00;100642.84;;;4.94;100.00
32638;BME280;19045;52.268;10.506;2023-02-19T05:54:27;100649.81;;;4.95;100.00
32638;BME280;19045;52.268;10.506;2023-02-19T05:56:54;100655.38;;;4.87;100.00
32638;BME280;19045;52.268;10.506;2023-02-19T05:59:23;100651.56;;;4.83;100.00
32638;BME280;19045;52.268;10.506;2023-02-19T06:01:52;100655.66;;;4.79;100.00
32638;BME280;19045;52.268;10.506;2023-02-19T06:04:19;100666.94;;;4.75;100.00
32638;BME280;19045;52.268;10.506;2023-02-19T06:06:46;100683.34;;;4.65;100.00
32638;BME280;19045;52.268;10.506;2023-02-19T06:09:13;100690.75;;;4.63;100.00
32638;BME280;19045;52.268;10.506;2023-02-19T06:11:40;100687.88;;;4.58;100.00
32638;BME280;19045;52.268;10.506;2023-02-19T06:14:07;100690.56;;;4.51;100.00
32638;BME280;19045;52.268;10.506;2023-02-19T06:16:34;100694.88;;;4.52;100.00
32638;BME280;19045;52.268;10.506;2023-02-19T06:19:03;100701.25;;;4.45;100.00
32638;BME280;19045;52.268;10.506;2023-02-19T06:21:29;100705.16;;;4.36;100.00
32638;BME280;19045;52.268;10.506;2023-02-19T06:23:56;100708.25;;;4.33;100.00
32638;BME280;19045;52.268;10.506;2023-02-19T06:26:23;100711.72;;;4.33;100.00
32638;BME280;19045;52.268;10.506;2023-02-19T06:28:51;100728.09;;;4.30;100.00
32638;BME280;19045;52.268;10.506;2023-02-19T06:31:19;100727.88;;;4.32;100.00
32638;BME280;19045;52.268;10.506;2023-02-19T06:33:47;100735.69;;;4.27;100.00
32638;BME280;19045;52.268;10.506;2023-02-19T06:36:17;100742.41;;;4.29;100.00
32638;BME280;19045;52.268;10.506;2023-02-19T06:38:44;100747.72;;;4.29;100.00
32638;BME280;19045;52.268;10.506;2023-02-19T06:41:11;100757.53;;;4.29;100.00
32638;BME280;19045;52.268;10.506;2023-02-19T06:43:38;100770.66;;;4.30;100.00
32638;BME280;19045;52.268;10.506;2023-02-19T06:46:05;100774.91;;;4.38;100.00
32638;BME280;19045;52.268;10.506;2023-02-19T06:48:33;100786.78;;;4.29;100.00
32638;BME280;19045;52.268;10.506;2023-02-19T06:51:00;100796.00;;;4.26;100.00
32638;BME280;19045;52.268;10.506;2023-02-19T06:53:28;100801.75;;;4.23;100.00
32638;BME280;19045;52.268;10.506;2023-02-19T06:55:56;100807.66;;;4.25;100.00
32638;BME280;19045;52.268;10.506;2023-02-19T06:58:23;100812.38;;;4.23;100.00
32638;BME280;19045;52.268;10.506;2023-02-19T07:00:50;100819.13;;;4.19;100.00
32638;BME280;19045;52.268;10.506;2023-02-19T07:03:17;100836.91;;;4.18;100.00
32638;BME280;19045;52.268;10.506;2023-02-19T07:05:44;100827.94;;;4.13;100.00
32638;BME280;19045;52.268;10.506;2023-02-19T07:08:10;100838.75;;;4.11;100.00
32638;BME280;19045;52.268;10.506;2023-02-19T07:10:38;100833.22;;;4.33;100.00
32638;BME280;19045;52.268;10.506;2023-02-19T07:13:05;100849.13;;;4.72;100.00
32638;BME280;19045;52.268;10.506;2023-02-19T07:15:31;100856.25;;;4.85;100.00
32638;BME280;19045;52.268;10.506;2023-02-19T07:17:58;100862.09;;;5.19;100.00
32638;BME280;19045;52.268;10.506;2023-02-19T07:20:25;100872.81;;;5.44;100.00
32638;BME280;19045;52.268;10.506;2023-02-19T07:22:51;100867.00;;;5.60;100.00
32638;BME280;19045;52.268;10.506;2023-02-19T07:25:18;100885.09;;;5.52;100.00
32638;BME280;19045;52.268;10.506;2023-02-19T07:27:47;100891.50;;;5.38;100.00
32638;BME280;19045;52.268;10.506;2023-02-19T07:30:14;100898.13;;;5.22;100.00
32638;BME280;19045;52.268;10.506;2023-02-19T07:32:40;100902.28;;;4.98;100.00
32638;BME280;19045;52.268;10.506;2023-02-19T07:35:09;100916.63;;;4.84;100.00
32638;BME280;19045;52.268;10.506;2023-02-19T07:37:36;100916.84;;;4.89;100.00
32638;BME280;19045;52.268;10.506;2023-02-19T07:40:03;100925.25;;;4.86;100.00
32638;BME280;19045;52.268;10.506;2023-02-19T07:42:30;100930.59;;;4.66;100.00
32638;BME280;19045;52.268;10.506;2023-02-19T07:44:58;100935.09;;;4.73;100.00
32638;BME280;19045;52.268;10.506;2023-02-19T07:47:25;100943.06;;;4.92;100.00
32638;BME280;19045;52.268;10.506;2023-02-19T07:49:51;100939.97;;;4.95;100.00
32638;BME280;19045;52.268;10.506;2023-02-19T07:52:18;100939.38;;;4.87;100.00
32638;BME280;19045;52.268;10.506;2023-02-19T07:54:45;100945.28;;;5.02;100.00
32638;BME280;19045;52.268;10.506;2023-02-19T07:57:11;100948.41;;;4.79;100.00
32638;BME280;19045;52.268;10.506;2023-02-19T07:59:38;100958.63;;;4.69;100.00
32638;BME280;19045;52.268;10.506;2023-02-19T08:02:13;100960.69;;;4.60;100.00
32638;BME280;19045;52.268;10.506;2023-02-19T08:04:58;100969.28;;;4.43;100.00
32638;BME280;19045;52.268;10.506;2023-02-19T08:07:30;100973.34;;;4.26;100.00
32638;BME280;19045;52.268;10.506;2023-02-19T08:09:56;100977.25;;;4.43;100.00
32638;BME280;19045;52.268;10.506;2023-02-19T08:12:54;100977.06;;;4.77;100.00
32638;BME280;19045;52.268;10.506;2023-02-19T08:15:39;100980.72;;;5.09;100.00
32638;BME280;19045;52.268;10.506;2023-02-19T08:18:08;100981.66;;;5.41;100.00
32638;BME280;19045;52.268;10.506;2023-02-19T08:20:35;100984.59;;;5.19;100.00
32638;BME280;19045;52.268;10.506;2023-02-19T08:23:02;100990.91;;;5.25;100.00
32638;BME280;19045;52.268;10.506;2023-02-19T08:25:29;100992.00;;;4.91;100.00
32638;BME280;19045;52.268;10.506;2023-02-19T08:27:55;100994.06;;;4.83;100.00
32638;BME280;19045;52.268;10.506;2023-02-19T08:30:24;101002.22;;;4.94;100.00
32638;BME280;19045;52.268;10.506;2023-02-19T08:32:51;101000.97;;;5.23;100.00
32638;BME280;19045;52.268;10.506;2023-02-19T08:35:19;101025.50;;;5.45;100.00
32638;BME280;19045;52.268;10.506;2023-02-19T08:37:45;101030.75;;;5.71;100.00
32638;BME280;19045;52.268;10.506;2023-02-19T08:40:12;101033.59;;;5.83;100.00
32638;BME280;19045;52.268;10.506;2023-02-19T08:42:39;101041.78;;;5.81;100.00
32638;BME280;19045;52.268;10.506;2023-02-19T08:45:06;101045.47;;;5.80;100.00
32638;BME280;19045;52.268;10.506;2023-02-19T08:47:34;101055.13;;;5.81;99.31
32638;BME280;19045;52.268;10.506;2023-02-19T08:50:01;101050.00;;;5.93;99.87
32638;BME280;19045;52.268;10.506;2023-02-19T08:52:31;101058.53;;;6.08;100.00
32638;BME280;19045;52.268;10.506;2023-02-19T08:54:57;101063.03;;;6.14;97.12
32638;BME280;19045;52.268;10.506;2023-02-19T08:57:24;101056.25;;;6.56;97.09
32638;BME280;19045;52.268;10.506;2023-02-19T08:59:53;101062.47;;;6.74;92.70
32638;BME280;19045;52.268;10.506;2023-02-19T09:02:20;101070.28;;;6.69;94.28
32638;BME280;19045;52.268;10.506;2023-02-19T09:04:46;101075.53;;;6.89;95.41
32638;BME280;19045;52.268;10.506;2023-02-19T09:07:13;101091.22;;;7.04;95.09
32638;BME280;19045;52.268;10.506;2023-02-19T09:09:41;101093.97;;;7.65;92.83
32638;BME280;19045;52.268;10.506;2023-02-19T09:12:10;101081.34;;;8.08;88.07
32638;BME280;19045;52.268;10.506;2023-02-19T09:14:37;101084.84;;;8.57;85.07
32638;BME280;19045;52.268;10.506;2023-02-19T09:17:05;101087.66;;;9.15;83.05
32638;BME280;19045;52.268;10.506;2023-02-19T09:19:33;101088.34;;;9.10;81.76
32638;BME280;19045;52.268;10.506;2023-02-19T09:21:59;101094.13;;;8.84;81.52
32638;BME280;19045;52.268;10.506;2023-02-19T09:24:26;101094.16;;;8.54;81.67
32638;BME280;19045;52.268;10.506;2023-02-19T09:26:54;101097.84;;;8.83;83.11
32638;BME280;19045;52.268;10.506;2023-02-19T09:29:23;101095.16;;;8.83;80.47
32638;BME280;19045;52.268;10.506;2023-02-19T09:31:50;101093.22;;;8.60;81.27
32638;BME280;19045;52.268;10.506;2023-02-19T09:34:16;101092.13;;;8.50;82.29
32638;BME280;19045;52.268;10.506;2023-02-19T09:36:43;101099.44;;;8.72;81.52
32638;BME280;19045;52.268;10.506;2023-02-19T09:39:09;101088.75;;;10.23;76.39
32638;BME280;19045;52.268;10.506;2023-02-19T09:41:38;101094.06;;;10.47;74.01
32638;BME280;19045;52.268;10.506;2023-02-19T09:44:13;101106.88;;;10.45;73.36
32638;BME280;19045;52.268;10.506;2023-02-19T09:46:46;101107.91;;;10.15;73.58
32638;BME280;19045;52.268;10.506;2023-02-19T09:49:14;101130.69;;;9.90;75.73
32638;BME280;19045;52.268;10.506;2023-02-19T09:51:45;101133.03;;;9.51;76.90
32638;BME280;19045;52.268;10.506;2023-02-19T09:54:19;101129.38;;;9.11;78.72
32638;BME280;19045;52.268;10.506;2023-02-19T09:56:46;101132.72;;;8.95;80.21
32638;BME280;19045;52.268;10.506;2023-02-19T09:59:18;101129.03;;;9.19;79.13
32638;BME280;19045;52.268;10.506;2023-02-19T10:01:47;101141.66;;;9.42;75.57
32638;BME280;19045;52.268;10.506;2023-02-19T10:04:14;101133.56;;;11.08;71.29
32638;BME280;19045;52.268;10.506;2023-02-19T10:06:41;101145.31;;;11.68;66.44
32638;BME280;19045;52.268;10.506;2023-02-19T10:09:18;101144.44;;;12.18;65.92
32638;BME280;19045;52.268;10.506;2023-02-19T10:11:47;101145.69;;;12.32;63.96
32638;BME280;19045;52.268;10.506;2023-02-19T10:14:18;101158.53;;;11.70;62.86
32638;BME280;19045;52.268;10.506;2023-02-19T10:16:48;101173.03;;;11.19;63.64
32638;BME280;19045;52.268;10.506;2023-02-19T10:19:15;101177.03;;;10.60;67.51
32638;BME280;19045;52.268;10.506;2023-02-19T10:21:42;101179.94;;;10.07;69.32
32638;BME280;19045;52.268;10.506;2023-02-19T10:24:15;101194.69;;;10.44;68.11
32638;BME280;19045;52.268;10.506;2023-02-19T10:26:44;101190.66;;;12.31;62.97
32638;BME280;19045;52.268;10.506;2023-02-19T10:29:11;101194.19;;;15.17;51.34
32638;BME280;19045;52.268;10.506;2023-02-19T10:31:39;101203.19;;;15.73;49.30
32638;BME280;19045;52.268;10.506;2023-02-19T10:34:16;101206.78;;;14.76;49.29
32638;BME280;19045;52.268;10.506;2023-02-19T10:36:46;101202.56;;;15.15;50.88
32638;BME280;19045;52.268;10.506;2023-02-19T10:39:35;101206.75;;;14.66;51.83
32638;BME280;19045;52.268;10.506;2023-02-19T10:42:03;101216.97;;;13.38;54.34
32638;BME280;19045;52.268;10.506;2023-02-19T10:44:34;101229.88;;;12.22;57.25
32638;BME280;19045;52.268;10.506;2023-02-19T10:47:05;101230.41;;;12.84;55.22
32638;BME280;19045;52.268;10.506;2023-02-19T10:49:34;101233.84;;;12.80;56.83
32638;BME280;19045;52.268;10.506;2023-02-19T10:52:13;101243.63;;;13.08;55.59
32638;BME280;19045;52.268;10.506;2023-02-19T10:54:43;101257.25;;;12.53;58.19
32638;BME280;19045;52.268;10.506;2023-02-19T10:57:24;101255.91;;;11.67;60.12
32638;BME280;19045;52.268;10.506;2023-02-19T10:59:56;101252.16;;;13.21;57.97
32638;BME280;19045;52.268;10.506;2023-02-19T11:02:24;101246.63;;;19.18;44.19
32638;BME280;19045;52.268;10.506;2023-02-19T11:05:05;101242.81;;;24.59;33.12
32638;BME280;19045;52.268;10.506;2023-02-19T11:07:32;101224.50;;;28.16;27.87
32638;BME280;19045;52.268;10.506;2023-02-19T11:09:59;101227.84;;;28.72;25.88
32638;BME280;19045;52.268;10.506;2023-02-19T11:12:28;101232.84;;;28.04;26.19
32638;BME280;19045;52.268;10.506;2023-02-19T11:14:55;101235.59;;;28.04;24.64
32638;BME280;19045;52.268;10.506;2023-02-19T11:17:24;101214.69;;;24.24;29.11
32638;BME280;19045;52.268;10.506;2023-02-19T11:19:53;101226.84;;;20.28;33.94
32638;BME280;19045;52.268;10.506;2023-02-19T11:22:28;101228.94;;;17.29;39.45
32638;BME280;19045;52.268;10.506;2023-02-19T11:25:03;101230.66;;;16.61;42.98
32638;BME280;19045;52.268;10.506;2023-02-19T11:27:31;101232.59;;;22.28;34.42
32638;BME280;19045;52.268;10.506;2023-02-19T11:30:25;101235.34;;;20.67;32.94
32638;BME280;19045;52.268;10.506;2023-02-19T11:33:13;101240.03;;;17.76;38.47
32638;BME280;19045;52.268;10.506;2023-02-19T11:35:45;101233.88;;;19.50;35.16
32638;BME280;19045;52.268;10.506;2023-02-19T11:38:14;101234.78;;;21.86;31.96
32638;BME280;19045;52.268;10.506;2023-02-19T11:40:44;101247.00;;;22.42;31.60
32638;BME280;19045;52.268;10.506;2023-02-19T11:43:32;101240.94;;;26.65;26.81
32638;BME280;19045;52.268;10.506;2023-02-19T11:46:06;101234.38;;;29.72;23.48
32638;BME280;19045;52.268;10.506;2023-02-19T11:48:42;101233.47;;;26.78;25.05
32638;BME280;19045;52.268;10.506;2023-02-19T11:51:27;101216.78;;;28.72;24.27
32638;BME280;19045;52.268;10.506;2023-02-19T11:54:07;101221.72;;;32.25;20.90
32638;BME280;19045;52.268;10.506;2023-02-19T11:56:40;101227.03;;;34.06;19.98
32638;BME280;19045;52.268;10.506;2023-02-19T11:59:15;101230.53;;;35.09;18.73
32638;BME280;19045;52.268;10.506;2023-02-19T12:02:14;101237.03;;;34.43;18.87
32638;BME280;19045;52.268;10.506;2023-02-19T12:05:08;101244.81;;;31.52;20.76
32638;BME280;19045;52.268;10.506;2023-02-19T12:08:15;101228.09;;;33.52;18.84
32638;BME280;19045;52.268;10.506;2023-02-19T12:10:55;101245.88;;;30.61;20.97
32638;BME280;19045;52.268;10.506;2023-02-19T12:13:31;101249.56;;;25.94;25.25
32638;BME280;19045;52.268;10.506;2023-02-19T12:16:10;101249.00;;;27.46;23.42
32638;BME280;19045;52.268;10.506;2023-02-19T12:19:04;101243.25;;;31.54;20.27
32638;BME280;19045;52.268;10.506;2023-02-19T12:21:46;101235.03;;;33.07;19.07
32638;BME280;19045;52.268;10.506;2023-02-19T12:27:36;101232.88;;;30.65;21.17
32638;BME280;19045;52.268;10.506;2023-02-19T12:30:30;101233.06;;;30.08;21.28
32638;BME280;19045;52.268;10.506;2023-02-19T12:36:04;101230.50;;;30.41;20.52
32638;BME280;19045;52.268;10.506;2023-02-19T12:38:42;101229.28;;;29.01;22.10
32638;BME280;19045;52.268;10.506;2023-02-19T12:41:19;101238.38;;;29.55;21.32
32638;BME280;19045;52.268;10.506;2023-02-19T12:43:53;101238.25;;;28.94;21.98
32638;BME280;19045;52.268;10.506;2023-02-19T12:46:25;101235.88;;;28.14;23.41
32638;BME280;19045;52.268;10.506;2023-02-19T12:48:57;101241.19;;;30.65;21.37
32638;BME280;19045;52.268;10.506;2023-02-19T12:51:30;101248.44;;;31.96;19.44
32638;BME280;19045;52.268;10.506;2023-02-19T12:54:01;101247.53;;;30.20;20.23
32638;BME280;19045;52.268;10.506;2023-02-19T12:56:35;101252.81;;;30.48;20.89
32638;BME280;19045;52.268;10.506;2023-02-19T12:59:09;101258.38;;;28.60;21.80
32638;BME280;19045;52.268;10.506;2023-02-19T13:01:44;101262.53;;;25.61;24.83
32638;BME280;19045;52.268;10.506;2023-02-19T13:04:23;101269.06;;;21.26;29.43
32638;BME280;19045;52.268;10.506;2023-02-19T13:06:53;101266.75;;;21.99;28.74